Time;durP1;ratioP1;P1;durP2;ratioP2;P2;SDS_P1;SDS_P2;PMS_P1;PMS_P2;Temp;Humidity;BMP_temperature;BMP_pressure;BME280_temperature;BME280_humidity;BME280_pressure;Samples;Min_cycle;Max_cycle;Signal;HPM_P1;HPM_P2
2022/05/02 00:00:13;;;;;;;0.40;0.40;;;;;;;;;;1844177;77;25962;-46
2022/05/02 00:02:40;;;;;;;0.40;0.40;;;;;;;;;;1873615;75;26776;-48
2022/05/02 00:05:08;;;;;;;0.40;0.40;;;;;;;;;;1886365;75;26285;-46
2022/05/02 00:07:36;;;;;;;0.50;0.50;;;;;;;;;;1886490;75;26241;-46
2022/05/02 00:10:04;;;;;;;0.40;0.40;;;;;;;;;;1875480;75;26767;-47
2022/05/02 00:12:31;;;;;;;0.30;0.30;;;;;;;;;;1874176;75;26816;-46
2022/05/02 00:14:59;;;;;;;0.40;0.40;;;;;;;;;;1882458;75;26327;-49
2022/05/02 00:20:11;;;;;;;0.40;0.40;;;;;;;;;;1885515;75;26446;-45
2022/05/02 00:22:40;;;;;;;0.30;0.30;;;;;;;;;;1880137;75;26330;-45
2022/05/02 00:25:08;;;;;;;0.50;0.50;;;;;;;;;;1886293;75;26268;-50
2022/05/02 00:27:37;;;;;;;0.40;0.40;;;;;;;;;;1884670;75;26761;-46
2022/05/02 00:30:04;;;;;;;0.30;0.30;;;;;;;;;;1888570;75;26917;-45
2022/05/02 00:32:31;;;;;;;0.37;0.37;;;;;;;;;;1899183;75;26251;-47
2022/05/02 00:34:59;;;;;;;0.50;0.50;;;;;;;;;;1887714;75;26697;-46
2022/05/02 00:37:26;;;;;;;0.40;0.40;;;;;;;;;;1886697;75;26782;-47
2022/05/02 00:39:53;;;;;;;0.40;0.40;;;;;;;;;;1886987;75;26674;-45
2022/05/02 00:42:21;;;;;;;0.47;0.47;;;;;;;;;;1886912;75;26721;-46
2022/05/02 00:44:48;;;;;;;0.40;0.40;;;;;;;;;;1885313;75;26193;-49
2022/05/02 00:47:20;;;;;;;0.40;0.40;;;;;;;;;;1902877;74;26654;-47
2022/05/02 00:49:45;;;;;;;0.45;0.45;;;;;;;;;;1893490;74;26321;-50
2022/05/02 00:52:12;;;;;;;0.50;0.50;;;;;;;;;;1903927;74;26257;-49
2022/05/02 00:54:39;;;;;;;0.42;0.42;;;;;;;;;;1910972;74;26329;-47
2022/05/02 00:57:07;;;;;;;0.40;0.40;;;;;;;;;;1890183;74;26301;-47
2022/05/02 00:59:39;;;;;;;0.60;0.60;;;;;;;;;;1905314;74;26262;-47
2022/05/02 01:02:07;;;;;;;0.50;0.50;;;;;;;;;;1899530;74;26204;-46
2022/05/02 01:04:35;;;;;;;0.50;0.50;;;;;;;;;;1906979;74;26317;-49
2022/05/02 01:07:10;;;;;;;0.50;0.50;;;;;;;;;;1907115;74;26219;-47
2022/05/02 01:09:42;;;;;;;0.47;0.47;;;;;;;;;;1906084;74;26307;-47
2022/05/02 01:12:10;;;;;;;0.50;0.50;;;;;;;;;;1911880;74;26754;-50
2022/05/02 01:14:37;;;;;;;0.50;0.50;;;;;;;;;;1910793;74;27448;-47
2022/05/02 01:17:05;;;;;;;0.55;0.55;;;;;;;;;;1906140;74;26242;-45
2022/05/02 01:19:33;;;;;;;0.50;0.50;;;;;;;;;;1911169;74;27064;-45
2022/05/02 01:22:01;;;;;;;0.40;0.40;;;;;;;;;;1907434;74;26265;-50
2022/05/02 01:24:35;;;;;;;0.40;0.40;;;;;;;;;;1907920;73;26264;-49
2022/05/02 01:27:03;;;;;;;0.40;0.40;;;;;;;;;;1911713;74;26332;-47
2022/05/02 01:29:31;;;;;;;0.50;0.50;;;;;;;;;;1911243;74;26319;-49
2022/05/02 01:31:59;;;;;;;0.60;0.60;;;;;;;;;;1911723;74;26327;-46
2022/05/02 01:34:27;;;;;;;0.40;0.40;;;;;;;;;;1912697;74;26309;-46
2022/05/02 01:36:56;;;;;;;0.40;0.40;;;;;;;;;;1910355;74;26327;-48
2022/05/02 01:39:23;;;;;;;0.40;0.40;;;;;;;;;;1909784;74;26258;-45
2022/05/02 01:41:50;;;;;;;0.82;0.50;;;;;;;;;;1912583;74;26230;-47
2022/05/02 01:44:18;;;;;;;0.50;0.50;;;;;;;;;;1913757;74;26265;-47
2022/05/02 01:46:45;;;;;;;0.50;0.50;;;;;;;;;;1909943;74;26686;-45
2022/05/02 01:49:12;;;;;;;1.17;0.40;;;;;;;;;;1913955;74;26515;-47
2022/05/02 01:51:40;;;;;;;0.50;0.50;;;;;;;;;;1909097;74;26803;-45
2022/05/02 01:54:07;;;;;;;0.50;0.50;;;;;;;;;;1913613;74;26706;-45
2022/05/02 01:56:35;;;;;;;0.30;0.30;;;;;;;;;;1910397;74;26245;-48
2022/05/02 01:59:03;;;;;;;0.40;0.40;;;;;;;;;;1908352;74;26331;-45
2022/05/02 02:01:31;;;;;;;1.17;0.50;;;;;;;;;;1913032;74;26253;-48
2022/05/02 02:05:48;;;;;;;0.50;0.50;;;;;;;;;;1908524;73;26400;-48
2022/05/02 02:06:30;;;;;;;0.50;0.50;;;;;;;;;;1906410;74;26758;-48
2022/05/02 02:08:57;;;;;;;0.50;0.50;;;;;;;;;;1910745;73;26242;-48
2022/05/02 02:11:25;;;;;;;0.37;0.37;;;;;;;;;;1913259;74;26242;-49
2022/05/02 02:13:52;;;;;;;0.98;0.42;;;;;;;;;;1912236;74;26316;-49
2022/05/02 02:16:19;;;;;;;1.00;0.47;;;;;;;;;;1909952;74;26262;-46
2022/05/02 02:18:46;;;;;;;0.33;0.33;;;;;;;;;;1912634;74;26339;-48
2022/05/02 02:21:14;;;;;;;0.53;0.53;;;;;;;;;;1911741;74;27108;-46
2022/05/02 02:23:43;;;;;;;0.40;0.40;;;;;;;;;;1904565;73;26368;-46
2022/05/02 02:26:10;;;;;;;0.57;0.57;;;;;;;;;;1877631;75;26277;-48
2022/05/02 02:28:39;;;;;;;0.85;0.40;;;;;;;;;;1874058;75;26272;-49
2022/05/02 02:31:06;;;;;;;0.55;0.55;;;;;;;;;;1877483;75;26257;-50
2022/05/02 02:33:33;;;;;;;0.50;0.50;;;;;;;;;;1874059;75;26602;-48
2022/05/02 02:36:01;;;;;;;0.50;0.50;;;;;;;;;;1877108;75;26329;-47
2022/05/02 02:38:28;;;;;;;0.42;0.42;;;;;;;;;;1877420;75;26261;-48
2022/05/02 02:40:55;;;;;;;0.50;0.50;;;;;;;;;;1877521;75;26737;-47
2022/05/02 02:43:23;;;;;;;1.00;0.50;;;;;;;;;;1877308;75;26347;-47
2022/05/02 02:45:50;;;;;;;1.20;0.40;;;;;;;;;;1841194;77;26776;-46
2022/05/02 02:48:17;;;;;;;0.40;0.40;;;;;;;;;;1878410;76;26908;-47
2022/05/02 02:50:45;;;;;;;0.47;0.47;;;;;;;;;;1885196;75;26818;-48
2022/05/02 02:53:12;;;;;;;0.53;0.45;;;;;;;;;;1882172;75;26347;-48
2022/05/02 02:55:39;;;;;;;0.42;0.42;;;;;;;;;;1886032;75;26328;-45
2022/05/02 02:58:06;;;;;;;0.40;0.40;;;;;;;;;;1885233;75;26701;-48
2022/05/02 03:00:34;;;;;;;0.50;0.50;;;;;;;;;;1882219;74;26954;-46
2022/05/02 03:03:01;;;;;;;0.45;0.45;;;;;;;;;;1885555;75;26332;-51
2022/05/02 03:08:14;;;;;;;0.50;0.50;;;;;;;;;;1878063;75;26363;-46
2022/05/02 03:10:41;;;;;;;0.40;0.40;;;;;;;;;;1877453;75;26287;-49
2022/05/02 03:13:08;;;;;;;0.47;0.47;;;;;;;;;;1894380;75;26359;-48
2022/05/02 03:15:36;;;;;;;0.47;0.47;;;;;;;;;;1890527;75;26303;-46
2022/05/02 03:18:04;;;;;;;0.47;0.47;;;;;;;;;;1893255;75;26297;-49
2022/05/02 03:20:31;;;;;;;0.45;0.45;;;;;;;;;;1877084;75;26216;-50
2022/05/02 03:22:59;;;;;;;0.45;0.45;;;;;;;;;;1872990;75;26777;-48
2022/05/02 03:25:26;;;;;;;0.40;0.40;;;;;;;;;;1884035;75;26740;-48
2022/05/02 03:27:53;;;;;;;0.50;0.50;;;;;;;;;;1873816;75;26249;-48
2022/05/02 03:30:21;;;;;;;0.40;0.40;;;;;;;;;;1873154;75;26265;-46
2022/05/02 03:32:49;;;;;;;0.40;0.40;;;;;;;;;;1884714;75;26289;-45
2022/05/02 03:35:16;;;;;;;0.42;0.40;;;;;;;;;;1884647;75;26257;-47
2022/05/02 03:37:44;;;;;;;0.50;0.50;;;;;;;;;;1886725;75;26275;-46
2022/05/02 03:40:11;;;;;;;0.50;0.50;;;;;;;;;;1886916;75;26830;-47
2022/05/02 03:42:39;;;;;;;0.35;0.35;;;;;;;;;;1884728;75;26299;-46
2022/05/02 03:45:07;;;;;;;0.20;0.20;;;;;;;;;;1879242;75;26769;-47
2022/05/02 03:47:34;;;;;;;0.40;0.40;;;;;;;;;;1834667;77;26925;-48
2022/05/02 03:50:01;;;;;;;0.42;0.42;;;;;;;;;;1894585;74;26780;-47
2022/05/02 03:52:29;;;;;;;0.50;0.50;;;;;;;;;;1910505;73;26290;-50
2022/05/02 03:54:57;;;;;;;0.40;0.40;;;;;;;;;;1911366;74;26327;-49
2022/05/02 03:57:24;;;;;;;0.40;0.40;;;;;;;;;;1913905;74;26795;-48
2022/05/02 03:59:51;;;;;;;0.45;0.45;;;;;;;;;;1909768;74;26243;-48
2022/05/02 04:02:18;;;;;;;0.50;0.50;;;;;;;;;;1906128;74;26359;-47
2022/05/02 04:04:46;;;;;;;0.40;0.40;;;;;;;;;;1905451;74;26246;-49
2022/05/02 04:07:13;;;;;;;0.45;0.30;;;;;;;;;;1914334;74;26690;-49
2022/05/02 04:09:40;;;;;;;0.30;0.30;;;;;;;;;;1901317;74;26687;-46
2022/05/02 04:12:08;;;;;;;0.40;0.40;;;;;;;;;;1914405;74;26373;-49
2022/05/02 04:14:36;;;;;;;0.30;0.30;;;;;;;;;;1914390;74;26769;-46
2022/05/02 04:17:03;;;;;;;0.40;0.40;;;;;;;;;;1909200;74;26241;-45
2022/05/02 04:19:30;;;;;;;0.40;0.40;;;;;;;;;;1914519;74;26233;-47
2022/05/02 04:21:58;;;;;;;0.40;0.40;;;;;;;;;;1913519;74;26248;-46
2022/05/02 04:24:25;;;;;;;0.45;0.45;;;;;;;;;;1910069;74;26348;-47
2022/05/02 04:26:52;;;;;;;0.40;0.40;;;;;;;;;;1913984;74;26884;-46
2022/05/02 04:29:19;;;;;;;0.30;0.30;;;;;;;;;;1905573;74;26250;-46
2022/05/02 04:31:47;;;;;;;0.42;0.42;;;;;;;;;;1907018;74;26319;-46
2022/05/02 04:34:14;;;;;;;0.30;0.30;;;;;;;;;;1890174;73;26323;-48
2022/05/02 04:36:41;;;;;;;0.40;0.40;;;;;;;;;;1902306;74;26370;-48
2022/05/02 04:39:09;;;;;;;0.40;0.40;;;;;;;;;;1909674;74;26238;-47
2022/05/02 04:41:36;;;;;;;0.30;0.30;;;;;;;;;;1912553;74;26309;-51
2022/05/02 04:44:04;;;;;;;0.37;0.37;;;;;;;;;;1907899;74;26305;-49
2022/05/02 04:46:31;;;;;;;0.30;0.30;;;;;;;;;;1904915;74;26307;-50
2022/05/02 04:48:58;;;;;;;0.30;0.30;;;;;;;;;;1913181;74;26286;-48
2022/05/02 04:51:25;;;;;;;0.40;0.40;;;;;;;;;;1913585;74;26242;-48
2022/05/02 04:53:53;;;;;;;0.37;0.37;;;;;;;;;;1911549;74;26882;-51
2022/05/02 04:56:21;;;;;;;0.70;0.45;;;;;;;;;;1915868;74;26231;-47
2022/05/02 04:58:48;;;;;;;0.45;0.45;;;;;;;;;;1904065;74;26280;-49
2022/05/02 05:01:15;;;;;;;0.40;0.40;;;;;;;;;;1877181;75;26254;-48
2022/05/02 05:03:43;;;;;;;0.68;0.40;;;;;;;;;;1880122;75;26301;-47
2022/05/02 05:06:10;;;;;;;0.50;0.50;;;;;;;;;;1877172;75;26741;-47
2022/05/02 05:08:37;;;;;;;0.75;0.50;;;;;;;;;;1880546;75;26266;-51
2022/05/02 05:11:18;;;;;;;0.50;0.50;;;;;;;;;;1885704;75;26301;-47
2022/05/02 05:17:07;;;;;;;0.60;0.60;;;;;;;;;;1879605;75;26296;-48
2022/05/02 05:19:36;;;;;;;0.75;0.50;;;;;;;;;;1895933;75;26338;-48
2022/05/02 05:22:05;;;;;;;2.55;0.50;;;;;;;;;;1875634;75;26312;-46
2022/05/02 05:24:39;;;;;;;1.62;0.57;;;;;;;;;;1875955;75;26335;-46
2022/05/02 05:27:25;;;;;;;1.35;0.50;;;;;;;;;;1876781;75;26761;-50
2022/05/02 05:30:00;;;;;;;0.62;0.50;;;;;;;;;;1881312;75;26273;-48
2022/05/02 05:32:28;;;;;;;1.05;0.40;;;;;;;;;;1878747;75;26265;-46
2022/05/02 05:35:08;;;;;;;0.30;0.30;;;;;;;;;;1878776;75;26673;-46
2022/05/02 05:37:43;;;;;;;0.60;0.60;;;;;;;;;;1856489;75;26350;-48
2022/05/02 05:40:12;;;;;;;1.77;0.47;;;;;;;;;;1877311;75;26656;-46
2022/05/02 05:42:45;;;;;;;0.75;0.40;;;;;;;;;;1882191;75;26241;-46
2022/05/02 05:45:14;;;;;;;0.50;0.50;;;;;;;;;;1875475;75;26879;-48
2022/05/02 05:47:42;;;;;;;0.30;0.30;;;;;;;;;;1902495;75;26758;-46
2022/05/02 05:50:23;;;;;;;1.45;0.50;;;;;;;;;;1873247;75;26277;-47
2022/05/02 05:53:09;;;;;;;1.15;0.40;;;;;;;;;;1868212;76;26754;-48
2022/05/02 05:55:50;;;;;;;0.50;0.40;;;;;;;;;;1910457;74;26791;-46
2022/05/02 05:58:31;;;;;;;0.68;0.50;;;;;;;;;;1908063;73;26398;-46
2022/05/02 06:01:05;;;;;;;1.42;0.40;;;;;;;;;;1913510;74;26312;-49
2022/05/02 06:03:34;;;;;;;1.45;0.40;;;;;;;;;;1911933;74;26264;-48
2022/05/02 06:06:02;;;;;;;1.32;0.37;;;;;;;;;;1911672;74;26321;-47
2022/05/02 06:08:30;;;;;;;0.65;0.50;;;;;;;;;;1908547;74;27312;-50
2022/05/02 06:10:58;;;;;;;0.45;0.45;;;;;;;;;;1912180;74;26297;-49
2022/05/02 06:13:27;;;;;;;0.30;0.30;;;;;;;;;;1914247;74;26246;-46
2022/05/02 06:18:43;;;;;;;1.57;0.55;;;;;;;;;;1904917;74;26844;-47
2022/05/02 06:21:10;;;;;;;0.50;0.50;;;;;;;;;;1910934;74;26540;-47
2022/05/02 06:23:39;;;;;;;1.02;0.40;;;;;;;;;;1907827;74;26347;-46
2022/05/02 06:26:07;;;;;;;0.40;0.40;;;;;;;;;;1904179;74;26230;-47
2022/05/02 06:28:36;;;;;;;1.40;0.47;;;;;;;;;;1914129;74;26354;-47
2022/05/02 06:31:04;;;;;;;0.40;0.40;;;;;;;;;;1906040;73;26219;-47
2022/05/02 06:33:31;;;;;;;0.40;0.40;;;;;;;;;;1915563;74;26278;-50
2022/05/02 06:36:09;;;;;;;0.40;0.40;;;;;;;;;;1914692;74;26300;-49
2022/05/02 06:38:38;;;;;;;0.40;0.40;;;;;;;;;;1909750;74;26307;-48
2022/05/02 06:41:12;;;;;;;0.55;0.55;;;;;;;;;;1839706;75;26269;-49
2022/05/02 06:43:41;;;;;;;0.30;0.30;;;;;;;;;;1906149;74;26364;-46
2022/05/02 06:46:10;;;;;;;1.00;0.40;;;;;;;;;;1908925;74;26242;-51
2022/05/02 06:48:39;;;;;;;0.40;0.40;;;;;;;;;;1913316;74;26316;-49
2022/05/02 06:51:08;;;;;;;2.17;0.50;;;;;;;;;;1919431;74;26262;-48
2022/05/02 06:53:36;;;;;;;0.47;0.47;;;;;;;;;;1922053;73;26358;-48
2022/05/02 06:56:08;;;;;;;0.35;0.35;;;;;;;;;;1930246;73;26558;-46
2022/05/02 06:58:40;;;;;;;0.35;0.35;;;;;;;;;;1924677;73;26249;-45
2022/05/02 07:01:14;;;;;;;0.62;0.40;;;;;;;;;;1913478;74;26592;-47
2022/05/02 07:03:58;;;;;;;0.40;0.40;;;;;;;;;;1918577;74;26692;-48
2022/05/02 07:06:33;;;;;;;1.25;0.40;;;;;;;;;;1920640;74;26780;-49
2022/05/02 07:09:03;;;;;;;0.57;0.47;;;;;;;;;;1878064;74;26301;-48
2022/05/02 07:11:32;;;;;;;0.40;0.40;;;;;;;;;;1904714;74;26278;-50
2022/05/02 07:14:00;;;;;;;0.40;0.40;;;;;;;;;;1916605;74;26238;-50
2022/05/02 07:16:29;;;;;;;0.33;0.33;;;;;;;;;;1904477;74;26256;-46
2022/05/02 07:18:58;;;;;;;0.42;0.40;;;;;;;;;;1924304;74;26370;-44
2022/05/02 07:21:29;;;;;;;0.40;0.40;;;;;;;;;;1918023;74;26308;-46
2022/05/02 07:24:01;;;;;;;0.30;0.30;;;;;;;;;;1918539;73;26328;-43
2022/05/02 07:26:30;;;;;;;0.65;0.65;;;;;;;;;;1921341;74;26757;-51
2022/05/02 07:29:01;;;;;;;0.50;0.50;;;;;;;;;;1917989;74;26256;-46
2022/05/02 07:31:29;;;;;;;0.50;0.50;;;;;;;;;;1921686;74;26264;-45
2022/05/02 07:33:56;;;;;;;0.40;0.40;;;;;;;;;;1920257;74;26320;-44
2022/05/02 07:36:24;;;;;;;0.40;0.40;;;;;;;;;;1910917;74;26263;-42
2022/05/02 07:39:06;;;;;;;0.30;0.30;;;;;;;;;;1923450;74;26334;-45
2022/05/02 07:41:35;;;;;;;0.25;0.25;;;;;;;;;;1920507;74;26909;-43
2022/05/02 07:44:07;;;;;;;0.42;0.42;;;;;;;;;;1905461;74;26730;-45
2022/05/02 07:46:45;;;;;;;0.30;0.30;;;;;;;;;;1917595;74;26230;-48
2022/05/02 07:49:11;;;;;;;0.20;0.20;;;;;;;;;;1920812;74;26750;-44
2022/05/02 07:51:43;;;;;;;0.40;0.40;;;;;;;;;;1921682;74;26327;-44
2022/05/02 07:54:18;;;;;;;0.50;0.50;;;;;;;;;;1922980;74;26254;-49
2022/05/02 07:56:50;;;;;;;0.75;0.60;;;;;;;;;;1922201;74;26257;-43
2022/05/02 07:59:18;;;;;;;0.42;0.42;;;;;;;;;;1921766;74;26261;-51
2022/05/02 08:01:46;;;;;;;0.30;0.30;;;;;;;;;;1920515;74;26349;-48
2022/05/02 08:04:13;;;;;;;0.78;0.30;;;;;;;;;;1920507;74;26320;-46
2022/05/02 08:06:45;;;;;;;0.40;0.40;;;;;;;;;;1921012;74;26252;-46
2022/05/02 08:09:26;;;;;;;0.33;0.33;;;;;;;;;;1918045;74;26878;-48
2022/05/02 08:12:04;;;;;;;0.30;0.30;;;;;;;;;;1914147;74;26864;-49
2022/05/02 08:14:33;;;;;;;3.02;0.40;;;;;;;;;;1916433;74;26649;-48
2022/05/02 08:17:02;;;;;;;0.20;0.20;;;;;;;;;;1884122;74;26186;-47
2022/05/02 08:19:35;;;;;;;0.55;0.30;;;;;;;;;;1912164;74;26253;-45
2022/05/02 08:27:49;;;;;;;0.30;0.30;;;;;;;;;;1918974;74;26364;-42
2022/05/02 08:30:23;;;;;;;0.20;0.20;;;;;;;;;;1921998;73;26745;-44
2022/05/02 08:33:01;;;;;;;0.40;0.40;;;;;;;;;;1904531;74;26357;-48
2022/05/02 08:35:30;;;;;;;0.33;0.33;;;;;;;;;;1920453;73;26257;-47
2022/05/02 08:38:07;;;;;;;0.55;0.30;;;;;;;;;;1934879;73;26348;-49
2022/05/02 08:40:45;;;;;;;0.30;0.30;;;;;;;;;;1917898;74;26290;-45
2022/05/02 08:43:26;;;;;;;0.40;0.40;;;;;;;;;;1888861;74;26243;-48
2022/05/02 08:46:01;;;;;;;0.45;0.45;;;;;;;;;;1915827;74;26242;-44
2022/05/02 08:48:30;;;;;;;0.30;0.30;;;;;;;;;;1921228;74;26759;-45
2022/05/02 08:50:59;;;;;;;0.75;0.30;;;;;;;;;;1916447;74;26733;-50
2022/05/02 08:53:30;;;;;;;0.90;0.20;;;;;;;;;;1837650;74;26658;-45
2022/05/02 08:56:08;;;;;;;0.30;0.30;;;;;;;;;;1911768;74;26270;-48
2022/05/02 08:58:45;;;;;;;0.30;0.30;;;;;;;;;;1913094;74;26211;-44
2022/05/02 09:01:17;;;;;;;0.28;0.25;;;;;;;;;;1912834;74;26238;-47
2022/05/02 09:04:02;;;;;;;0.30;0.30;;;;;;;;;;1912747;74;26758;-48
2022/05/02 09:06:46;;;;;;;1.12;0.25;;;;;;;;;;1914492;74;26335;-43
2022/05/02 09:09:18;;;;;;;0.23;0.23;;;;;;;;;;1910676;74;26231;-47
2022/05/02 09:11:56;;;;;;;0.40;0.40;;;;;;;;;;1901786;73;26324;-44
2022/05/02 09:14:30;;;;;;;0.20;0.20;;;;;;;;;;1906925;74;26274;-44
2022/05/02 09:17:15;;;;;;;0.30;0.23;;;;;;;;;;1903522;74;26243;-44
2022/05/02 09:19:56;;;;;;;1.55;0.20;;;;;;;;;;1904249;74;27340;-47
2022/05/02 09:22:42;;;;;;;0.57;0.30;;;;;;;;;;1915593;73;26227;-47
2022/05/02 09:25:10;;;;;;;0.53;0.30;;;;;;;;;;1927739;74;26305;-42
2022/05/02 09:27:58;;;;;;;0.42;0.30;;;;;;;;;;1915695;74;26227;-43
2022/05/02 09:30:42;;;;;;;0.37;0.30;;;;;;;;;;1918079;74;26704;-47
2022/05/02 09:33:14;;;;;;;1.65;0.30;;;;;;;;;;1915070;74;26760;-47
2022/05/02 09:35:42;;;;;;;0.28;0.28;;;;;;;;;;1907038;74;26357;-50
2022/05/02 09:38:20;;;;;;;0.30;0.30;;;;;;;;;;1905324;74;26329;-45
2022/05/02 09:40:50;;;;;;;0.40;0.40;;;;;;;;;;1911449;74;26651;-42
2022/05/02 09:49:38;;;;;;;0.30;0.30;;;;;;;;;;1903457;74;26320;-43
2022/05/02 09:52:15;;;;;;;0.35;0.33;;;;;;;;;;1913568;74;26270;-48
2022/05/02 09:57:36;;;;;;;0.30;0.30;;;;;;;;;;1909403;74;26821;-45
2022/05/02 10:02:52;;;;;;;0.95;0.30;;;;;;;;;;1909904;74;26259;-44
2022/05/02 10:05:26;;;;;;;0.30;0.30;;;;;;;;;;1910122;74;26259;-46
2022/05/02 10:07:54;;;;;;;0.30;0.30;;;;;;;;;;1912666;74;26402;-43
2022/05/02 10:10:26;;;;;;;0.23;0.23;;;;;;;;;;1912538;74;26676;-42
2022/05/02 10:12:55;;;;;;;0.30;0.30;;;;;;;;;;1913368;74;26753;-43
2022/05/02 10:15:36;;;;;;;1.55;0.40;;;;;;;;;;1905531;74;26743;-43
2022/05/02 10:18:20;;;;;;;0.33;0.33;;;;;;;;;;1906887;74;26766;-40
2022/05/02 10:20:59;;;;;;;0.25;0.25;;;;;;;;;;1910574;74;26317;-41
2022/05/02 10:23:46;;;;;;;0.30;0.30;;;;;;;;;;1907394;74;26548;-46
2022/05/02 10:26:24;;;;;;;0.20;0.20;;;;;;;;;;1909610;74;26257;-46
2022/05/02 10:28:59;;;;;;;0.10;0.10;;;;;;;;;;1910139;74;26237;-42
2022/05/02 10:31:26;;;;;;;0.30;0.30;;;;;;;;;;1906702;74;26242;-43
2022/05/02 10:33:54;;;;;;;0.30;0.30;;;;;;;;;;1897956;74;26280;-42
2022/05/02 10:36:23;;;;;;;0.20;0.20;;;;;;;;;;1910448;74;26267;-40
2022/05/02 10:38:55;;;;;;;0.23;0.23;;;;;;;;;;1906651;74;27145;-40
2022/05/02 10:41:29;;;;;;;0.30;0.30;;;;;;;;;;1900376;74;26878;-40
2022/05/02 10:44:06;;;;;;;0.20;0.20;;;;;;;;;;1911344;73;26745;-41
2022/05/02 10:46:34;;;;;;;0.30;0.30;;;;;;;;;;1894747;74;26243;-41
2022/05/02 10:49:03;;;;;;;0.55;0.40;;;;;;;;;;1898103;74;26704;-43
2022/05/02 10:51:35;;;;;;;0.20;0.20;;;;;;;;;;1909958;74;27258;-40
2022/05/02 10:54:16;;;;;;;0.20;0.20;;;;;;;;;;1908808;74;26282;-41
2022/05/02 10:56:45;;;;;;;0.30;0.30;;;;;;;;;;1910539;74;26279;-40
2022/05/02 10:59:13;;;;;;;0.60;0.40;;;;;;;;;;1909974;74;26647;-41
2022/05/02 11:01:54;;;;;;;0.30;0.30;;;;;;;;;;1904017;74;26334;-48
2022/05/02 11:04:39;;;;;;;0.35;0.35;;;;;;;;;;1913952;74;26277;-44
2022/05/02 11:07:08;;;;;;;0.40;0.20;;;;;;;;;;1902985;74;26855;-45
2022/05/02 11:09:37;;;;;;;1.75;0.37;;;;;;;;;;1908844;74;26974;-48
2022/05/02 11:12:06;;;;;;;0.30;0.30;;;;;;;;;;1910242;74;26795;-45
2022/05/02 11:14:40;;;;;;;0.28;0.28;;;;;;;;;;1908323;74;26259;-44
2022/05/02 11:17:27;;;;;;;0.30;0.30;;;;;;;;;;1902458;74;26262;-46
2022/05/02 11:22:48;;;;;;;0.62;0.30;;;;;;;;;;1905444;74;26889;-44
2022/05/02 11:25:20;;;;;;;3.52;0.40;;;;;;;;;;1905892;73;26808;-43
2022/05/02 11:27:54;;;;;;;0.40;0.40;;;;;;;;;;1911462;74;26769;-42
2022/05/02 11:30:23;;;;;;;1.95;0.33;;;;;;;;;;1904225;74;26324;-42
2022/05/02 11:32:58;;;;;;;0.33;0.33;;;;;;;;;;1909236;74;26840;-42
2022/05/02 11:35:30;;;;;;;0.35;0.30;;;;;;;;;;1905059;73;26263;-45
2022/05/02 11:38:07;;;;;;;0.30;0.30;;;;;;;;;;1911154;74;26312;-41
2022/05/02 11:40:39;;;;;;;0.42;0.42;;;;;;;;;;1912002;74;26293;-40
2022/05/02 11:43:08;;;;;;;1.62;0.37;;;;;;;;;;1900341;74;26267;-41
2022/05/02 11:45:45;;;;;;;1.47;0.40;;;;;;;;;;1908102;74;26876;-42
2022/05/02 11:48:23;;;;;;;1.17;0.35;;;;;;;;;;1905585;74;26269;-48
2022/05/02 11:50:54;;;;;;;1.35;0.30;;;;;;;;;;1910286;74;26286;-51
2022/05/02 11:53:22;;;;;;;0.40;0.40;;;;;;;;;;1909270;74;26939;-48
2022/05/02 11:55:51;;;;;;;0.55;0.40;;;;;;;;;;1912274;74;26254;-47
2022/05/02 11:58:26;;;;;;;0.20;0.20;;;;;;;;;;1909568;74;26300;-49
2022/05/02 12:01:01;;;;;;;0.28;0.28;;;;;;;;;;1906055;74;26586;-43
2022/05/02 12:03:30;;;;;;;0.20;0.20;;;;;;;;;;1910109;74;26273;-51
2022/05/02 12:05:58;;;;;;;0.30;0.30;;;;;;;;;;1892824;74;26275;-52
2022/05/02 12:08:33;;;;;;;0.30;0.30;;;;;;;;;;1913674;74;26319;-47
2022/05/02 12:11:08;;;;;;;1.72;0.30;;;;;;;;;;1908598;74;26275;-47
2022/05/02 12:13:36;;;;;;;0.20;0.20;;;;;;;;;;1910510;74;26230;-45
2022/05/02 12:16:08;;;;;;;0.20;0.20;;;;;;;;;;1905152;74;26312;-46
2022/05/02 12:18:42;;;;;;;0.75;0.28;;;;;;;;;;1912911;74;26254;-49
2022/05/02 12:21:11;;;;;;;0.30;0.30;;;;;;;;;;1913240;74;26726;-48
2022/05/02 12:23:40;;;;;;;0.30;0.30;;;;;;;;;;1910895;74;26734;-46
2022/05/02 12:26:08;;;;;;;0.30;0.30;;;;;;;;;;1914105;74;26242;-49
2022/05/02 12:28:41;;;;;;;0.20;0.20;;;;;;;;;;1902655;74;26347;-45
2022/05/02 12:31:09;;;;;;;0.30;0.30;;;;;;;;;;1908588;74;26335;-51
2022/05/02 12:33:39;;;;;;;0.28;0.28;;;;;;;;;;1909090;74;26725;-45
2022/05/02 12:36:14;;;;;;;0.20;0.20;;;;;;;;;;1911684;74;26324;-48
2022/05/02 12:38:43;;;;;;;0.30;0.30;;;;;;;;;;1912760;74;26689;-44
2022/05/02 12:41:12;;;;;;;0.30;0.30;;;;;;;;;;1913757;74;26273;-47
2022/05/02 12:43:44;;;;;;;0.25;0.25;;;;;;;;;;1914035;74;26285;-43
2022/05/02 12:46:11;;;;;;;0.30;0.30;;;;;;;;;;1902891;74;26305;-43
2022/05/02 12:48:40;;;;;;;0.50;0.40;;;;;;;;;;1907236;74;26713;-47
2022/05/02 12:51:10;;;;;;;0.20;0.20;;;;;;;;;;1912979;74;26288;-40
2022/05/02 12:56:22;;;;;;;0.30;0.30;;;;;;;;;;1898313;74;26591;-46
2022/05/02 13:01:43;;;;;;;4.47;0.30;;;;;;;;;;1906901;74;28197;-49
2022/05/02 13:04:17;;;;;;;0.37;0.37;;;;;;;;;;1904796;74;26259;-52
2022/05/02 13:06:45;;;;;;;0.55;0.30;;;;;;;;;;1912723;74;26331;-49
2022/05/02 13:09:19;;;;;;;0.30;0.30;;;;;;;;;;1920604;74;26769;-48
2022/05/02 13:11:44;;;;;;;1.12;0.30;;;;;;;;;;1911142;73;26327;-48
2022/05/02 13:14:22;;;;;;;0.40;0.40;;;;;;;;;;1908664;74;26339;-49
2022/05/02 13:16:50;;;;;;;0.30;0.30;;;;;;;;;;1903118;74;26261;-53
2022/05/02 13:19:17;;;;;;;0.30;0.30;;;;;;;;;;1906029;74;26282;-50
2022/05/02 13:21:46;;;;;;;0.30;0.30;;;;;;;;;;1913547;74;26331;-45
2022/05/02 13:24:16;;;;;;;0.30;0.30;;;;;;;;;;1909397;74;26301;-46
2022/05/02 13:27:03;;;;;;;0.62;0.20;;;;;;;;;;1910208;74;26333;-47
2022/05/02 13:29:32;;;;;;;0.30;0.30;;;;;;;;;;1910350;74;26722;-47
2022/05/02 13:32:03;;;;;;;0.35;0.35;;;;;;;;;;1894520;74;26273;-45
2022/05/02 13:34:43;;;;;;;0.30;0.30;;;;;;;;;;1912210;74;26265;-48
2022/05/02 13:37:15;;;;;;;0.45;0.40;;;;;;;;;;1896449;74;26359;-49
2022/05/02 13:39:53;;;;;;;0.23;0.23;;;;;;;;;;1910690;74;26324;-46
2022/05/02 13:42:39;;;;;;;0.35;0.30;;;;;;;;;;1915127;74;26380;-48
2022/05/02 13:45:11;;;;;;;0.30;0.30;;;;;;;;;;1917945;74;26414;-51
2022/05/02 13:47:45;;;;;;;0.30;0.30;;;;;;;;;;1877335;74;26247;-53
2022/05/02 13:50:14;;;;;;;0.20;0.20;;;;;;;;;;1907857;74;26339;-50
2022/05/02 13:52:52;;;;;;;0.30;0.30;;;;;;;;;;1914331;74;26341;-49
2022/05/02 13:55:21;;;;;;;0.28;0.28;;;;;;;;;;1917270;74;26254;-46
2022/05/02 13:57:56;;;;;;;0.40;0.40;;;;;;;;;;1912213;74;26951;-48
2022/05/02 14:03:17;;;;;;;1.65;0.40;;;;;;;;;;1918197;74;26327;-46
2022/05/02 14:08:31;;;;;;;1.17;0.30;;;;;;;;;;1917050;74;26306;-43
2022/05/02 14:10:58;;;;;;;0.30;0.30;;;;;;;;;;1916715;74;26286;-46
2022/05/02 14:13:27;;;;;;;0.33;0.33;;;;;;;;;;1919078;74;26323;-48
2022/05/02 14:16:05;;;;;;;0.30;0.30;;;;;;;;;;1923701;74;26667;-50
2022/05/02 14:18:48;;;;;;;0.25;0.25;;;;;;;;;;1925838;74;26254;-44
2022/05/02 14:21:15;;;;;;;0.35;0.30;;;;;;;;;;1922555;74;26257;-49
2022/05/02 14:23:46;;;;;;;0.40;0.40;;;;;;;;;;1924007;74;26234;-46
2022/05/02 14:26:14;;;;;;;0.40;0.40;;;;;;;;;;1919825;74;26242;-46
2022/05/02 14:28:45;;;;;;;0.30;0.30;;;;;;;;;;1904835;74;26246;-45
2022/05/02 14:31:13;;;;;;;0.23;0.23;;;;;;;;;;1924436;74;26249;-45
2022/05/02 14:33:41;;;;;;;0.23;0.23;;;;;;;;;;1922792;74;26341;-47
2022/05/02 14:36:09;;;;;;;1.22;0.40;;;;;;;;;;1910655;74;26734;-42
2022/05/02 14:38:37;;;;;;;0.28;0.28;;;;;;;;;;1920603;74;26222;-42
2022/05/02 14:41:06;;;;;;;0.40;0.40;;;;;;;;;;1923538;74;26229;-42
2022/05/02 14:43:34;;;;;;;0.30;0.30;;;;;;;;;;1922611;74;26307;-45
2022/05/02 14:46:02;;;;;;;0.30;0.30;;;;;;;;;;1917334;74;26269;-46
2022/05/02 14:48:29;;;;;;;0.20;0.20;;;;;;;;;;1922177;74;26304;-45
2022/05/02 14:51:05;;;;;;;0.20;0.20;;;;;;;;;;1918862;74;26230;-43
2022/05/02 14:53:39;;;;;;;0.30;0.30;;;;;;;;;;1920077;74;26329;-46
2022/05/02 14:56:12;;;;;;;0.23;0.23;;;;;;;;;;1918451;74;26234;-44
2022/05/02 14:58:44;;;;;;;0.30;0.30;;;;;;;;;;1914180;74;26238;-45
2022/05/02 15:01:14;;;;;;;0.20;0.20;;;;;;;;;;1915756;74;26241;-45
2022/05/02 15:03:43;;;;;;;0.20;0.20;;;;;;;;;;1916329;74;26685;-43
2022/05/02 15:06:11;;;;;;;0.25;0.25;;;;;;;;;;1922965;74;26780;-42
2022/05/02 15:08:42;;;;;;;0.20;0.20;;;;;;;;;;1920988;74;26304;-43
2022/05/02 15:11:12;;;;;;;0.23;0.23;;;;;;;;;;1916745;74;26297;-42
2022/05/02 15:13:56;;;;;;;0.30;0.20;;;;;;;;;;1923048;74;27295;-44
2022/05/02 15:16:28;;;;;;;0.40;0.40;;;;;;;;;;1910077;73;26281;-45
2022/05/02 15:21:46;;;;;;;1.00;0.37;;;;;;;;;;1905167;74;26839;-44
2022/05/02 15:24:32;;;;;;;0.23;0.23;;;;;;;;;;1918895;74;26749;-42
2022/05/02 15:26:59;;;;;;;0.28;0.28;;;;;;;;;;1916584;74;26246;-46
2022/05/02 15:36:39;;;;;;;0.37;0.37;;;;;;;;;;1922317;74;26346;-44
2022/05/02 15:37:41;;;;;;;0.85;0.30;;;;;;;;;;1918766;74;26253;-43
2022/05/02 15:40:26;;;;;;;0.30;0.30;;;;;;;;;;1923091;74;26315;-42
2022/05/02 15:43:01;;;;;;;0.20;0.20;;;;;;;;;;1922659;74;26323;-42
2022/05/02 15:45:32;;;;;;;0.25;0.25;;;;;;;;;;1901830;74;26711;-45
2022/05/02 15:47:59;;;;;;;0.30;0.25;;;;;;;;;;1905640;74;26304;-44
2022/05/02 15:50:26;;;;;;;0.20;0.20;;;;;;;;;;1915663;74;26703;-44
2022/05/02 15:53:01;;;;;;;0.40;0.40;;;;;;;;;;1913285;74;26282;-44
2022/05/02 15:55:48;;;;;;;1.35;0.25;;;;;;;;;;1915756;74;26331;-43